Time,TemperatureF,DewpointF,PressureIn,WindDirection,WindDirectionDegrees,WindSpeedMPH,WindSpeedGustMPH,Humidity,HourlyPrecipIn,Conditions,Clouds,dailyrainin,SoftwareType,DateUTC
2016-02-08 00:06:00,43.7,27.0,29.74,SSW,194,2.0,2.0,53,0.00,,,0.00,weatherlink.com 1.10,2016-02-08 05:06:00,
2016-02-08 00:21:00,43.9,28.0,29.74,SSE,165,0.0,2.0,53,0.00,,,0.00,weatherlink.com 1.10,2016-02-08 05:21:00,
2016-02-08 00:36:00,43.9,28.0,29.74,SSE,158,0.0,2.0,53,0.00,,,0.00,weatherlink.com 1.10,2016-02-08 05:36:00,
2016-02-08 00:51:00,43.7,28.0,29.73,SE,138,0.0,1.0,54,0.00,,,0.00,weatherlink.com 1.10,2016-02-08 05:51:00,
2016-02-08 01:06:00,43.6,27.0,29.73,SSW,201,0.0,3.0,53,0.00,,,0.00,weatherlink.com 1.10,2016-02-08 06:06:00,
2016-02-08 01:21:00,43.5,28.0,29.72,SSW,202,0.0,3.0,54,0.00,,,0.00,weatherlink.com 1.10,2016-02-08 06:21:00,
2016-02-08 01:36:00,43.4,28.0,29.72,West,262,0.0,1.0,55,0.00,,,0.00,weatherlink.com 1.10,2016-02-08 06:36:00,
2016-02-08 01:51:00,42.9,32.0,29.71,SW,218,0.0,3.0,66,0.00,,,0.00,weatherlink.com 1.10,2016-02-08 06:51:00,
2016-02-08 02:06:00,42.0,34.0,29.71,NW,307,2.0,5.0,73,0.00,,,0.00,weatherlink.com 1.10,2016-02-08 07:06:00,
2016-02-08 02:21:00,41.2,35.0,29.70,WNW,293,0.0,1.0,77,0.00,,,0.00,weatherlink.com 1.10,2016-02-08 07:21:00,
2016-02-08 02:36:00,40.7,35.0,29.70,WNW,284,0.0,1.0,79,0.00,,,0.00,weatherlink.com 1.10,2016-02-08 07:36:00,
2016-02-08 02:51:00,40.2,35.0,29.70,WNW,291,2.0,2.0,81,0.00,,,0.00,weatherlink.com 1.10,2016-02-08 07:51:00,
2016-02-08 03:06:00,39.5,34.0,29.70,West,277,0.0,3.0,82,0.01,,,0.01,weatherlink.com 1.10,2016-02-08 08:06:00,
2016-02-08 03:21:00,38.9,35.0,29.69,WNW,290,0.0,1.0,86,0.02,,,0.02,weatherlink.com 1.10,2016-02-08 08:21:00,
2016-02-08 03:51:00,38.1,35.0,29.68,WNW,288,0.0,0.0,89,0.02,,,0.02,weatherlink.com 1.10,2016-02-08 08:51:00,
2016-02-08 04:07:00,37.7,35.0,29.67,WNW,288,0.0,0.0,90,0.01,,,0.02,weatherlink.com 1.10,2016-02-08 09:07:00,
2016-02-08 04:22:00,37.6,35.0,29.67,WNW,288,0.0,0.0,90,0.00,,,0.02,weatherlink.com 1.10,2016-02-08 09:22:00,
2016-02-08 04:37:00,37.5,35.0,29.67,West,280,0.0,0.0,91,0.01,,,0.03,weatherlink.com 1.10,2016-02-08 09:37:00,
2016-02-08 04:52:00,37.4,35.0,29.67,West,278,0.0,1.0,91,0.02,,,0.04,weatherlink.com 1.10,2016-02-08 09:52:00,
2016-02-08 05:07:00,36.8,34.0,29.67,West,278,0.0,3.0,90,0.04,,,0.06,weatherlink.com 1.10,2016-02-08 10:07:00,
2016-02-08 05:22:00,36.5,34.0,29.66,WNW,300,0.0,1.0,91,0.04,,,0.06,weatherlink.com 1.10,2016-02-08 10:22:00,
2016-02-08 05:37:00,36.3,34.0,29.66,WNW,298,0.0,0.0,92,0.04,,,0.07,weatherlink.com 1.10,2016-02-08 10:37:00,
2016-02-08 05:52:00,36.2,34.0,29.66,WNW,298,0.0,0.0,92,0.03,,,0.07,weatherlink.com 1.10,2016-02-08 10:52:00,
2016-02-08 06:07:00,35.8,34.0,29.65,WNW,298,0.0,0.0,92,0.01,,,0.07,weatherlink.com 1.10,2016-02-08 11:07:00,
2016-02-08 06:22:00,35.2,33.0,29.65,WNW,298,0.0,0.0,92,0.01,,,0.07,weatherlink.com 1.10,2016-02-08 11:22:00,
2016-02-08 06:37:00,34.9,33.0,29.65,WNW,297,0.0,0.0,93,0.00,,,0.07,weatherlink.com 1.10,2016-02-08 11:37:00,
2016-02-08 06:52:00,34.6,33.0,29.64,WNW,298,0.0,0.0,93,0.00,,,0.07,weatherlink.com 1.10,2016-02-08 11:52:00,
2016-02-08 07:07:00,34.6,33.0,29.64,WNW,298,0.0,0.0,93,0.00,,,0.07,weatherlink.com 1.10,2016-02-08 12:07:00,
2016-02-08 07:22:00,34.1,33.0,29.64,WNW,297,0.0,0.0,94,0.00,,,0.07,weatherlink.com 1.10,2016-02-08 12:22:00,
2016-02-08 07:37:00,33.7,32.0,29.64,WNW,298,0.0,0.0,94,0.00,,,0.07,weatherlink.com 1.10,2016-02-08 12:37:00,
2016-02-08 07:52:00,33.8,33.0,29.63,WNW,298,0.0,0.0,95,0.00,,,0.07,weatherlink.com 1.10,2016-02-08 12:52:00,
2016-02-08 08:07:00,34.5,33.0,29.63,WNW,298,0.0,0.0,95,0.00,,,0.07,weatherlink.com 1.10,2016-02-08 13:07:00,
2016-02-08 08:22:00,34.7,34.0,29.63,WNW,291,0.0,0.0,95,0.00,,,0.07,weatherlink.com 1.10,2016-02-08 13:22:00,
2016-02-08 08:37:00,35.1,34.0,29.63,West,259,0.0,0.0,95,0.00,,,0.07,weatherlink.com 1.10,2016-02-08 13:37:00,
2016-02-08 08:52:00,35.4,34.0,29.63,WSW,240,0.0,0.0,95,0.00,,,0.07,weatherlink.com 1.10,2016-02-08 13:52:00,
2016-02-08 09:07:00,35.5,34.0,29.63,West,265,0.0,0.0,95,0.00,,,0.07,weatherlink.com 1.10,2016-02-08 14:07:00,
2016-02-08 09:22:00,35.5,34.0,29.62,West,281,0.0,3.0,95,0.00,,,0.07,weatherlink.com 1.10,2016-02-08 14:22:00,
2016-02-08 09:37:00,35.7,34.0,29.62,WNW,284,0.0,3.0,93,0.00,,,0.07,weatherlink.com 1.10,2016-02-08 14:37:00,
2016-02-08 09:52:00,35.4,33.0,29.63,West,259,1.0,3.0,92,0.00,,,0.07,weatherlink.com 1.10,2016-02-08 14:52:00,
2016-02-08 10:07:00,35.0,33.0,29.62,WSW,245,0.0,2.0,91,0.00,,,0.07,weatherlink.com 1.10,2016-02-08 15:07:00,
2016-02-08 10:22:00,34.7,32.0,29.63,West,263,0.0,3.0,91,0.00,,,0.07,weatherlink.com 1.10,2016-02-08 15:22:00,
2016-02-08 10:37:00,34.6,33.0,29.63,WSW,243,0.0,1.0,92,0.00,,,0.07,weatherlink.com 1.10,2016-02-08 15:37:00,
2016-02-08 10:52:00,34.3,33.0,29.63,SW,231,0.0,0.0,93,0.00,,,0.07,weatherlink.com 1.10,2016-02-08 15:52:00,
2016-02-08 11:07:00,34.2,32.0,29.63,West,267,1.0,1.0,93,0.01,,,0.08,weatherlink.com 1.10,2016-02-08 16:07:00,
2016-02-08 11:22:00,34.0,32.0,29.63,WSW,252,0.0,0.0,93,0.02,,,0.09,weatherlink.com 1.10,2016-02-08 16:22:00,
2016-02-08 11:37:00,34.4,33.0,29.64,SW,232,0.0,0.0,94,0.02,,,0.09,weatherlink.com 1.10,2016-02-08 16:37:00,
2016-02-08 11:52:00,34.8,34.0,29.64,SW,228,0.0,1.0,95,0.03,,,0.10,weatherlink.com 1.10,2016-02-08 16:52:00,
2016-02-08 12:37:00,35.8,34.0,29.62,SW,233,0.0,2.0,94,0.01,,,0.10,weatherlink.com 1.10,2016-02-08 17:37:00,
2016-02-08 12:52:00,35.6,34.0,29.62,WSW,249,0.0,1.0,93,0.00,,,0.10,weatherlink.com 1.10,2016-02-08 17:52:00,